Aérodrome :
LOGIN :

S'inscrire | Disclaimer

   EN    FR    IT 

 










Légende :    VFR   VFR Marginal   IFR   IFR Intensif   IFR Très Intensif
Visi : 
Plafond : 
>= 8 km
>= 3000ft
5 à 8 km
1000 à 3000 ft
1500m à 5 km
500 à 1000 ft
800 à 1500m
200 à 500 ft
< 800m
< 200 ft
Symboles :   Orages  Brouillard  Fortes neiges  Fortes précipitations  Vent > 20 kt
SIGMETs :   Divers  Orages  Givrage  Turbulence  Onde Orograph.  Cendres Volcan.







- Altitude de l'aérodrome : 373 ft
- Code IATA : OZH


UKDE - Mokraya

DERNIER METAR :
  • 210530Z 07003MPS 030V100 CAVOK 23/07 Q1016 R02R/CLRD70 NOSIG

METARs EXPIRÉS :
  • 210500Z 07003MPS CAVOK 22/07 Q1016 R02R/CLRD70 NOSIG
  • 210430Z 07002MPS 030V100 CAVOK 20/07 Q1016 R02R/CLRD70 NOSIG
  • 210400Z 06002MPS CAVOK 17/06 Q1016 R02R/CLRD70 NOSIG
  • 210330Z VRB01MPS CAVOK 15/06 Q1016 R02R/CLRD70 NOSIG
  • 210300Z 05002MPS CAVOK 14/05 Q1016 R02R/CLRD70 NOSIG

TAF TAF UKDE
Valide du 21 à 06h jusqu'au 21 à 15h UTC


210505Z 2106/2115 VRB01MPS CAVOK TX29/2112Z TN23/2106Z
TEMPO 2109/2115 25004MPS
FIR UKDV / Europe



MET'MAP, la Météo Aéronautique d'un coup d'oeil ! - Copyright ORBIFLY Décembre 2007 - Disclaimer

ORBIFLY MET'MAP TEAM :

Programmation & Développement : Alexandra Zaïnal
Conception & Développement : Baudouin d'Aumeries
Co-Programmation & Développement : Marc-Olivier Méhu
Soutien technique & logistique : Manuel Goepfert

Contact : metmap@orbifly.com




SOURCES & CREDITS :

   NOAA